createdAt,value
2023-05-03T00:00:29.423Z,650.00
2023-05-03T00:01:29.590Z,651.00
2023-05-03T00:02:29.499Z,650.00
2023-05-03T00:03:29.398Z,649.00
2023-05-03T00:04:29.385Z,649.00
2023-05-03T00:05:29.425Z,649.00
2023-05-03T00:06:29.409Z,647.00
2023-05-03T00:07:29.472Z,648.00
2023-05-03T00:08:29.338Z,650.00
2023-05-03T00:09:29.344Z,650.00
2023-05-03T00:10:29.327Z,652.00
2023-05-03T00:11:29.311Z,652.00
2023-05-03T00:12:29.309Z,651.00
2023-05-03T00:13:29.422Z,650.00
2023-05-03T00:14:29.270Z,651.00
2023-05-03T00:15:29.278Z,652.00
2023-05-03T00:16:29.286Z,651.00
2023-05-03T00:17:29.262Z,650.00
2023-05-03T00:18:29.227Z,653.00
2023-05-03T00:19:31.868Z,654.00
2023-05-03T00:20:29.210Z,653.00
2023-05-03T00:21:29.209Z,654.00
2023-05-03T00:22:29.199Z,653.00
2023-05-03T00:23:29.201Z,655.00
2023-05-03T00:24:29.184Z,654.00
2023-05-03T00:25:29.544Z,654.00
2023-05-03T00:26:29.144Z,653.00
2023-05-03T00:27:29.155Z,653.00
2023-05-03T00:28:29.137Z,654.00
2023-05-03T00:29:29.125Z,655.00
2023-05-03T00:30:29.104Z,655.00
2023-05-03T00:31:29.312Z,657.00
2023-05-03T00:32:29.096Z,655.00
2023-05-03T00:33:29.082Z,655.00
2023-05-03T00:34:29.072Z,656.00
2023-05-03T00:35:29.076Z,658.00
2023-05-03T00:36:29.047Z,658.00
2023-05-03T00:37:29.171Z,657.00
2023-05-03T00:38:29.030Z,655.00
2023-05-03T00:39:29.035Z,656.00
2023-05-03T00:40:29.002Z,655.00
2023-05-03T00:41:28.996Z,654.00
2023-05-03T00:42:28.979Z,654.00
2023-05-03T00:43:29.107Z,651.00
2023-05-03T00:44:28.953Z,650.00
2023-05-03T00:45:28.954Z,651.00
2023-05-03T00:46:28.961Z,649.00
2023-05-03T00:47:28.953Z,650.00
2023-05-03T00:48:28.920Z,650.00
2023-05-03T00:49:35.039Z,650.00
2023-05-03T00:50:28.904Z,650.00
2023-05-03T00:51:28.891Z,652.00
2023-05-03T00:52:28.883Z,654.00
2023-05-03T00:53:28.871Z,654.00
2023-05-03T00:54:28.862Z,652.00
2023-05-03T00:55:29.091Z,652.00
2023-05-03T00:56:31.147Z,653.00
2023-05-03T00:57:28.825Z,654.00
2023-05-03T00:58:28.813Z,653.00
2023-05-03T00:59:28.825Z,652.00
2023-05-03T01:00:28.789Z,651.00
2023-05-03T01:01:28.952Z,652.00
2023-05-03T01:02:28.846Z,651.00
2023-05-03T01:03:28.849Z,651.00
2023-05-03T01:04:28.751Z,649.00
2023-05-03T01:05:28.742Z,651.00
2023-05-03T01:06:28.795Z,651.00
2023-05-03T01:07:28.758Z,649.00
2023-05-03T01:08:28.703Z,650.00
2023-05-03T01:09:28.707Z,650.00
2023-05-03T01:10:28.687Z,650.00
2023-05-03T01:11:28.683Z,649.00
2023-05-03T01:12:28.662Z,649.00
2023-05-03T01:13:28.812Z,649.00
2023-05-03T01:14:28.643Z,650.00
2023-05-03T01:15:28.635Z,650.00
2023-05-03T01:16:28.666Z,649.00
2023-05-03T01:17:28.664Z,651.00
2023-05-03T01:18:28.594Z,647.00
2023-05-03T01:19:28.714Z,646.00
2023-05-03T01:20:28.584Z,644.00
2023-05-03T01:21:28.568Z,644.00
2023-05-03T01:22:28.560Z,643.00
2023-05-03T01:23:28.563Z,644.00
2023-05-03T01:24:28.528Z,644.00
2023-05-03T01:25:28.664Z,644.00
2023-05-03T01:26:28.528Z,645.00
2023-05-03T01:27:28.514Z,645.00
2023-05-03T01:28:28.493Z,647.00
2023-05-03T01:29:28.488Z,650.00
2023-05-03T01:30:28.473Z,652.00
2023-05-03T01:31:28.513Z,651.00
2023-05-03T01:32:28.454Z,650.00
2023-05-03T01:33:28.448Z,649.00
2023-05-03T01:34:28.418Z,648.00
2023-05-03T01:35:28.430Z,651.00
2023-05-03T01:36:28.407Z,651.00
2023-05-03T01:37:28.564Z,653.00
2023-05-03T01:38:28.382Z,653.00
2023-05-03T01:39:28.378Z,652.00
2023-05-03T01:40:28.366Z,649.00
2023-05-03T01:41:28.365Z,647.00
2023-05-03T01:42:28.357Z,648.00
2023-05-03T01:43:28.487Z,647.00
2023-05-03T01:44:28.323Z,647.00
2023-05-03T01:45:28.326Z,649.00
2023-05-03T01:46:28.368Z,649.00
2023-05-03T01:47:28.330Z,650.00
2023-05-03T01:48:28.278Z,649.00
2023-05-03T01:50:39.257Z,637.00
2023-05-03T01:51:40.211Z,640.00
2023-05-03T01:52:40.211Z,643.00
2023-05-03T01:53:40.203Z,647.00
2023-05-03T01:54:40.188Z,647.00
2023-05-03T01:55:40.439Z,646.00
2023-05-03T01:56:40.159Z,649.00
2023-05-03T01:57:40.152Z,651.00
2023-05-03T01:58:40.133Z,651.00
2023-05-03T01:59:40.134Z,651.00
2023-05-03T02:00:40.126Z,650.00
2023-05-03T02:01:40.351Z,648.00
2023-05-03T02:02:40.132Z,646.00
2023-05-03T02:03:40.094Z,647.00
2023-05-03T02:04:40.116Z,647.00
2023-05-03T02:05:40.075Z,647.00
2023-05-03T02:06:40.215Z,651.00
2023-05-03T02:07:40.200Z,651.00
2023-05-03T02:08:40.034Z,652.00
2023-05-03T02:09:40.034Z,650.00
2023-05-03T02:10:40.024Z,651.00
2023-05-03T02:11:40.022Z,652.00
2023-05-03T02:12:39.989Z,652.00
2023-05-03T02:13:40.129Z,653.00
2023-05-03T02:14:39.989Z,652.00
2023-05-03T02:15:39.981Z,652.00
2023-05-03T02:16:39.971Z,652.00
2023-05-03T02:17:39.989Z,652.00
2023-05-03T02:18:39.938Z,651.00
2023-05-03T02:19:40.073Z,651.00
2023-05-03T02:20:39.915Z,649.00
2023-05-03T02:21:39.902Z,647.00
2023-05-03T02:22:39.884Z,647.00
2023-05-03T02:23:39.885Z,649.00
2023-05-03T02:24:39.867Z,648.00
2023-05-03T02:25:39.996Z,648.00
2023-05-03T02:26:39.850Z,648.00
2023-05-03T02:27:39.849Z,648.00
2023-05-03T02:28:39.831Z,648.00
2023-05-03T02:29:39.824Z,648.00
2023-05-03T02:30:39.816Z,648.00
2023-05-03T02:31:39.817Z,649.00
2023-05-03T02:32:39.807Z,649.00
2023-05-03T02:33:39.787Z,649.00
2023-05-03T02:34:39.768Z,649.00
2023-05-03T02:35:39.760Z,648.00
2023-05-03T02:36:39.749Z,649.00
2023-05-03T02:37:39.865Z,648.00
2023-05-03T02:38:39.728Z,649.00
2023-05-03T02:39:39.716Z,648.00
2023-05-03T02:40:39.701Z,649.00
2023-05-03T02:41:39.689Z,646.00
2023-05-03T02:42:39.680Z,647.00
2023-05-03T02:43:39.832Z,649.00
2023-05-03T02:44:39.661Z,646.00
2023-05-03T02:45:39.658Z,645.00
2023-05-03T02:46:39.739Z,645.00
2023-05-03T02:47:39.667Z,644.00
2023-05-03T02:48:39.624Z,644.00
2023-05-03T02:49:46.251Z,644.00
2023-05-03T02:50:39.603Z,643.00
2023-05-03T02:51:39.601Z,644.00
2023-05-03T02:52:39.574Z,644.00
2023-05-03T02:53:39.576Z,644.00
2023-05-03T02:54:39.548Z,647.00
2023-05-03T02:55:39.699Z,646.00
2023-05-03T02:56:39.542Z,645.00
2023-05-03T02:57:40.479Z,644.00
2023-05-03T02:58:39.530Z,645.00
2023-05-03T02:59:39.509Z,646.00
2023-05-03T03:00:39.491Z,645.00
2023-05-03T03:01:39.684Z,646.00
2023-05-03T03:02:39.611Z,647.00
2023-05-03T03:03:39.538Z,647.00
2023-05-03T03:04:39.466Z,648.00
2023-05-03T03:05:39.445Z,647.00
2023-05-03T03:06:39.450Z,648.00
2023-05-03T03:07:39.580Z,648.00
2023-05-03T03:08:39.415Z,648.00
2023-05-03T03:09:39.400Z,645.00
2023-05-03T03:10:39.388Z,644.00
2023-05-03T03:11:39.383Z,644.00
2023-05-03T03:12:39.412Z,642.00
2023-05-03T03:13:39.553Z,643.00
2023-05-03T03:14:39.344Z,645.00
2023-05-03T03:15:39.352Z,648.00
2023-05-03T03:16:39.489Z,648.00
2023-05-03T03:17:39.441Z,649.00
2023-05-03T03:18:39.304Z,648.00
2023-05-03T03:19:39.469Z,647.00
2023-05-03T03:20:39.302Z,646.00
2023-05-03T03:21:39.282Z,645.00
2023-05-03T03:22:39.267Z,644.00
2023-05-03T03:23:39.264Z,644.00
2023-05-03T03:24:39.242Z,644.00
2023-05-03T03:25:39.385Z,645.00
2023-05-03T03:26:39.225Z,648.00
2023-05-03T03:27:40.034Z,649.00
2023-05-03T03:28:39.209Z,650.00
2023-05-03T03:29:39.191Z,646.00
2023-05-03T03:30:39.178Z,645.00
2023-05-03T03:31:39.338Z,644.00
2023-05-03T03:32:39.220Z,644.00
2023-05-03T03:33:39.153Z,641.00
2023-05-03T03:34:39.138Z,641.00
2023-05-03T03:35:39.138Z,644.00
2023-05-03T03:36:39.120Z,642.00
2023-05-03T03:37:39.167Z,643.00
2023-05-03T03:38:39.107Z,645.00
2023-05-03T03:39:39.091Z,646.00
2023-05-03T03:40:39.030Z,646.00
2023-05-03T03:41:39.071Z,648.00
2023-05-03T03:42:39.056Z,646.00
2023-05-03T03:43:39.209Z,647.00
2023-05-03T03:44:39.039Z,648.00
2023-05-03T03:45:39.039Z,649.00
2023-05-03T03:46:39.047Z,648.00
2023-05-03T03:47:39.072Z,651.00
2023-05-03T03:48:38.990Z,651.00
2023-05-03T03:49:45.149Z,650.00
2023-05-03T03:50:38.987Z,649.00
2023-05-03T03:51:38.974Z,649.00
2023-05-03T03:52:38.960Z,649.00
2023-05-03T03:53:38.947Z,648.00
2023-05-03T03:54:38.932Z,647.00
2023-05-03T03:55:39.075Z,649.00
2023-05-03T03:56:38.917Z,646.00
2023-05-03T03:57:38.866Z,645.00
2023-05-03T03:58:38.842Z,644.00
2023-05-03T03:59:38.843Z,646.00
2023-05-03T04:00:38.814Z,648.00
2023-05-03T04:01:39.023Z,645.00
2023-05-03T04:02:38.953Z,645.00
2023-05-03T04:03:38.868Z,645.00
2023-05-03T04:04:38.857Z,645.00
2023-05-03T04:05:38.779Z,643.00
2023-05-03T04:06:38.804Z,644.00
2023-05-03T04:07:38.793Z,645.00
2023-05-03T04:08:38.728Z,647.00
2023-05-03T04:09:38.726Z,647.00
2023-05-03T04:10:38.775Z,648.00
2023-05-03T04:11:38.768Z,646.00
2023-05-03T04:12:38.709Z,645.00
2023-05-03T04:13:38.837Z,642.00
2023-05-03T04:14:38.675Z,644.00
2023-05-03T04:15:38.682Z,644.00
2023-05-03T04:16:38.708Z,644.00
2023-05-03T04:17:38.657Z,641.00
2023-05-03T04:18:38.638Z,638.00
2023-05-03T04:19:38.709Z,638.00
2023-05-03T04:20:38.615Z,641.00
2023-05-03T04:21:38.598Z,643.00
2023-05-03T04:22:38.598Z,642.00
2023-05-03T04:23:38.630Z,640.00
2023-05-03T04:24:38.574Z,639.00
2023-05-03T04:25:38.704Z,638.00
2023-05-03T04:26:38.572Z,638.00
2023-05-03T04:27:38.580Z,638.00
2023-05-03T04:28:38.571Z,639.00
2023-05-03T04:29:38.524Z,640.00
2023-05-03T04:30:38.575Z,641.00
2023-05-03T04:31:38.673Z,642.00
2023-05-03T04:32:38.514Z,641.00
2023-05-03T04:33:38.481Z,642.00
2023-05-03T04:34:38.471Z,643.00
2023-05-03T04:35:38.464Z,644.00
2023-05-03T04:36:38.456Z,644.00
2023-05-03T04:37:38.480Z,645.00
2023-05-03T04:38:38.427Z,645.00
2023-05-03T04:39:38.418Z,646.00
2023-05-03T04:40:38.411Z,647.00
2023-05-03T04:41:38.389Z,647.00
2023-05-03T04:42:38.390Z,647.00
2023-05-03T04:43:38.499Z,649.00
2023-05-03T04:44:38.383Z,650.00
2023-05-03T04:45:38.357Z,649.00
2023-05-03T04:46:38.373Z,647.00
2023-05-03T04:47:38.353Z,649.00
2023-05-03T04:48:38.338Z,649.00
2023-05-03T04:49:38.676Z,647.00
2023-05-03T04:50:38.477Z,648.00
2023-05-03T04:51:38.491Z,646.00
2023-05-03T04:52:38.634Z,645.00
2023-05-03T04:53:38.704Z,641.00
2023-05-03T04:54:38.412Z,641.00
2023-05-03T04:55:38.618Z,639.00
2023-05-03T04:56:38.420Z,639.00
2023-05-03T04:57:38.436Z,638.00
2023-05-03T04:58:38.450Z,638.00
2023-05-03T04:59:38.234Z,638.00
2023-05-03T05:00:38.343Z,638.00
2023-05-03T05:01:38.677Z,638.00
2023-05-03T05:02:38.460Z,638.00
2023-05-03T05:03:38.443Z,639.00
2023-05-03T05:04:38.369Z,640.00
2023-05-03T05:05:38.277Z,643.00
2023-05-03T05:06:38.296Z,645.00
2023-05-03T05:07:38.490Z,645.00
2023-05-03T05:08:38.302Z,644.00
2023-05-03T05:09:38.302Z,644.00
2023-05-03T05:10:38.311Z,644.00
2023-05-03T05:11:38.213Z,645.00
2023-05-03T05:12:38.217Z,644.00
2023-05-03T05:13:38.436Z,644.00
2023-05-03T05:14:38.238Z,643.00
2023-05-03T05:15:38.240Z,645.00
2023-05-03T05:16:38.297Z,648.00
2023-05-03T05:17:38.261Z,647.00
2023-05-03T05:18:38.158Z,647.00
2023-05-03T05:19:38.166Z,648.00
2023-05-03T05:20:38.173Z,648.00
2023-05-03T05:21:38.187Z,648.00
2023-05-03T05:22:38.187Z,649.00
2023-05-03T05:23:38.092Z,649.00
2023-05-03T05:24:38.103Z,652.00
2023-05-03T05:25:38.332Z,653.00
2023-05-03T05:26:38.111Z,651.00
2023-05-03T05:27:38.124Z,652.00
2023-05-03T05:28:38.128Z,654.00
2023-05-03T05:29:38.038Z,657.00
2023-05-03T05:30:38.039Z,654.00
2023-05-03T05:31:38.410Z,653.00
2023-05-03T05:32:38.099Z,653.00
2023-05-03T05:33:38.057Z,653.00
2023-05-03T05:34:44.962Z,653.00
2023-05-03T05:35:38.080Z,652.00
2023-05-03T05:36:37.983Z,652.00
2023-05-03T05:37:38.196Z,652.00
2023-05-03T05:38:38.001Z,652.00
2023-05-03T05:39:38.024Z,652.00
2023-05-03T05:40:37.906Z,652.00
2023-05-03T05:41:37.912Z,653.00
2023-05-03T05:42:37.937Z,652.00
2023-05-03T05:43:37.935Z,652.00
2023-05-03T05:44:37.934Z,652.00
2023-05-03T05:45:37.945Z,655.00
2023-05-03T05:46:37.869Z,654.00
2023-05-03T05:47:37.895Z,655.00
2023-05-03T05:48:37.859Z,656.00
2023-05-03T05:50:35.152Z,650.00
2023-05-03T05:51:36.144Z,653.00
2023-05-03T05:52:36.140Z,655.00
2023-05-03T05:53:36.120Z,658.00
2023-05-03T05:54:36.103Z,659.00
2023-05-03T05:55:36.307Z,661.00
2023-05-03T05:56:36.099Z,662.00
2023-05-03T05:57:36.096Z,663.00
2023-05-03T05:58:36.061Z,665.00
2023-05-03T05:59:36.052Z,666.00
2023-05-03T06:00:36.049Z,665.00
2023-05-03T06:01:36.171Z,666.00
2023-05-03T06:02:36.087Z,667.00
2023-05-03T06:03:36.019Z,668.00
2023-05-03T06:04:36.001Z,669.00
2023-05-03T06:05:36.082Z,668.00
2023-05-03T06:06:36.043Z,669.00
2023-05-03T06:07:36.160Z,669.00
2023-05-03T06:08:35.963Z,670.00
2023-05-03T06:09:35.957Z,671.00
2023-05-03T06:10:35.932Z,672.00
2023-05-03T06:11:35.927Z,672.00
2023-05-03T06:12:35.914Z,672.00
2023-05-03T06:13:36.079Z,673.00
2023-05-03T06:14:35.927Z,673.00
2023-05-03T06:15:35.903Z,672.00
2023-05-03T06:16:35.928Z,673.00
2023-05-03T06:17:35.937Z,674.00
2023-05-03T06:18:35.865Z,675.00
2023-05-03T06:19:35.995Z,675.00
2023-05-03T06:20:35.832Z,676.00
2023-05-03T06:21:35.854Z,677.00
2023-05-03T06:22:35.814Z,679.00
2023-05-03T06:23:35.802Z,680.00
2023-05-03T06:24:35.797Z,679.00
2023-05-03T06:25:35.951Z,679.00
2023-05-03T06:26:35.781Z,680.00
2023-05-03T06:27:35.776Z,679.00
2023-05-03T06:28:35.748Z,680.00
2023-05-03T06:29:35.752Z,682.00
2023-05-03T06:30:35.729Z,681.00
2023-05-03T06:31:35.954Z,682.00
2023-05-03T06:32:35.788Z,679.00
2023-05-03T06:33:35.697Z,679.00
2023-05-03T06:34:35.698Z,679.00
2023-05-03T06:35:35.685Z,681.00
2023-05-03T06:36:35.677Z,682.00
2023-05-03T06:37:35.821Z,681.00
2023-05-03T06:38:35.647Z,682.00
2023-05-03T06:39:35.644Z,680.00
2023-05-03T06:40:37.772Z,679.00
2023-05-03T06:41:35.614Z,679.00
2023-05-03T06:42:35.595Z,681.00
2023-05-03T06:43:35.742Z,680.00
2023-05-03T06:44:35.576Z,678.00
2023-05-03T06:45:35.575Z,678.00
2023-05-03T06:46:35.590Z,677.00
2023-05-03T06:47:35.588Z,677.00
2023-05-03T06:48:35.555Z,677.00
2023-05-03T06:49:36.500Z,676.00
2023-05-03T06:50:42.512Z,676.00
2023-05-03T06:51:35.508Z,677.00
2023-05-03T06:52:35.504Z,677.00
2023-05-03T06:53:35.496Z,677.00
2023-05-03T06:54:35.477Z,676.00
2023-05-03T06:55:35.640Z,674.00
2023-05-03T06:56:35.448Z,673.00
2023-05-03T06:57:35.446Z,677.00
2023-05-03T06:58:35.426Z,678.00
2023-05-03T06:59:35.429Z,677.00
2023-05-03T07:00:35.410Z,676.00
2023-05-03T07:01:35.733Z,676.00
2023-05-03T07:02:35.480Z,677.00
2023-05-03T07:03:35.429Z,677.00
2023-05-03T07:04:35.365Z,677.00
2023-05-03T07:05:35.357Z,679.00
2023-05-03T07:06:44.199Z,681.00
2023-05-03T07:07:35.501Z,681.00
2023-05-03T07:08:35.334Z,679.00
2023-05-03T07:09:42.634Z,679.00
2023-05-03T07:10:35.308Z,680.00
2023-05-03T07:11:35.314Z,678.00
2023-05-03T07:12:35.278Z,678.00
2023-05-03T07:13:35.446Z,678.00
2023-05-03T07:14:35.269Z,679.00
2023-05-03T07:15:35.252Z,680.00
2023-05-03T07:16:35.278Z,681.00
2023-05-03T07:17:35.262Z,680.00
2023-05-03T07:18:35.230Z,681.00
2023-05-03T07:19:35.369Z,678.00
2023-05-03T07:20:35.198Z,681.00
2023-05-03T07:21:35.192Z,681.00
2023-05-03T07:22:35.186Z,682.00
2023-05-03T07:23:35.169Z,685.00
2023-05-03T07:24:35.159Z,685.00
2023-05-03T07:25:35.296Z,683.00
2023-05-03T07:26:35.131Z,682.00
2023-05-03T07:27:35.126Z,683.00
2023-05-03T07:28:35.110Z,684.00
2023-05-03T07:29:35.108Z,683.00
2023-05-03T07:30:35.097Z,685.00
2023-05-03T07:31:35.212Z,687.00
2023-05-03T07:32:35.161Z,687.00
2023-05-03T07:33:35.143Z,687.00
2023-05-03T07:34:35.060Z,689.00
2023-05-03T07:35:35.046Z,690.00
2023-05-03T07:36:35.072Z,691.00
2023-05-03T07:37:35.178Z,692.00
2023-05-03T07:38:35.011Z,691.00
2023-05-03T07:39:34.995Z,691.00
2023-05-03T07:40:34.991Z,692.00
2023-05-03T07:41:34.976Z,691.00
2023-05-03T07:42:34.965Z,690.00
2023-05-03T07:43:35.096Z,691.00
2023-05-03T07:44:34.966Z,691.00
2023-05-03T07:45:34.975Z,691.00
2023-05-03T07:46:34.976Z,692.00
2023-05-03T07:47:34.919Z,692.00
2023-05-03T07:48:34.956Z,693.00
2023-05-03T07:49:35.031Z,693.00
2023-05-03T07:50:35.037Z,692.00
2023-05-03T07:51:34.890Z,693.00
2023-05-03T07:52:34.857Z,692.00
2023-05-03T07:53:34.850Z,689.00
2023-05-03T07:54:34.854Z,687.00
2023-05-03T07:55:34.990Z,687.00
2023-05-03T07:56:34.821Z,686.00
2023-05-03T07:57:34.804Z,686.00
2023-05-03T07:58:40.036Z,685.00
2023-05-03T07:59:34.785Z,685.00
2023-05-03T08:00:34.789Z,685.00
2023-05-03T08:01:34.902Z,684.00
2023-05-03T08:02:34.869Z,685.00
2023-05-03T08:03:34.940Z,684.00
2023-05-03T08:04:34.852Z,682.00
2023-05-03T08:05:34.825Z,684.00
2023-05-03T08:06:34.706Z,685.00
2023-05-03T08:07:34.855Z,686.00
2023-05-03T08:08:34.893Z,686.00
2023-05-03T08:09:34.690Z,684.00
2023-05-03T08:10:34.686Z,685.00
2023-05-03T08:11:34.655Z,686.00
2023-05-03T08:12:34.657Z,687.00
2023-05-03T08:13:34.794Z,687.00
2023-05-03T08:14:34.633Z,687.00
2023-05-03T08:15:34.676Z,686.00
2023-05-03T08:16:34.623Z,686.00
2023-05-03T08:17:34.624Z,686.00
2023-05-03T08:18:34.585Z,684.00
2023-05-03T08:19:34.719Z,685.00
2023-05-03T08:20:34.581Z,685.00
2023-05-03T08:21:34.598Z,683.00
2023-05-03T08:22:34.582Z,681.00
2023-05-03T08:23:34.579Z,682.00
2023-05-03T08:24:34.530Z,682.00
2023-05-03T08:25:34.713Z,682.00
2023-05-03T08:26:34.510Z,684.00
2023-05-03T08:27:34.493Z,686.00
2023-05-03T08:28:34.486Z,685.00
2023-05-03T08:29:34.478Z,685.00
2023-05-03T08:30:34.466Z,686.00
2023-05-03T08:31:34.653Z,687.00
2023-05-03T08:32:34.522Z,688.00
2023-05-03T08:33:34.425Z,686.00
2023-05-03T08:34:34.422Z,685.00
2023-05-03T08:35:34.405Z,686.00
2023-05-03T08:36:34.403Z,686.00
2023-05-03T08:37:34.546Z,685.00
2023-05-03T08:38:34.398Z,685.00
2023-05-03T08:39:34.366Z,685.00
2023-05-03T08:40:34.362Z,688.00
2023-05-03T08:41:34.360Z,689.00
2023-05-03T08:42:34.339Z,688.00
2023-05-03T08:43:34.492Z,687.00
2023-05-03T08:44:34.310Z,685.00
2023-05-03T08:45:34.312Z,685.00
2023-05-03T08:46:34.310Z,685.00
2023-05-03T08:47:34.291Z,686.00
2023-05-03T08:48:34.276Z,684.00
2023-05-03T08:49:34.411Z,684.00
2023-05-03T08:50:40.813Z,687.00
2023-05-03T08:51:34.236Z,687.00
2023-05-03T08:52:34.238Z,687.00
2023-05-03T08:53:34.218Z,686.00
2023-05-03T08:54:34.209Z,685.00
2023-05-03T08:55:34.362Z,688.00
2023-05-03T08:56:34.201Z,687.00
2023-05-03T08:57:34.172Z,686.00
2023-05-03T08:58:34.166Z,686.00
2023-05-03T08:59:34.150Z,685.00
2023-05-03T09:00:34.147Z,687.00
2023-05-03T09:01:34.303Z,688.00
2023-05-03T09:02:34.216Z,688.00
2023-05-03T09:03:34.153Z,687.00
2023-05-03T09:04:34.122Z,686.00
2023-05-03T09:05:34.080Z,684.00
2023-05-03T09:06:34.106Z,682.00
2023-05-03T09:07:34.196Z,681.00
2023-05-03T09:08:34.061Z,682.00
2023-05-03T09:09:34.040Z,682.00
2023-05-03T09:10:34.066Z,683.00
2023-05-03T09:11:34.021Z,684.00
2023-05-03T09:12:34.017Z,685.00
2023-05-03T09:13:34.128Z,685.00
2023-05-03T09:14:33.996Z,684.00
2023-05-03T09:15:33.989Z,682.00
2023-05-03T09:16:34.012Z,680.00
2023-05-03T09:17:33.986Z,680.00
2023-05-03T09:18:33.954Z,680.00
2023-05-03T09:19:34.087Z,680.00
2023-05-03T09:20:33.944Z,678.00
2023-05-03T09:21:33.915Z,679.00
2023-05-03T09:22:33.911Z,681.00
2023-05-03T09:23:33.894Z,682.00
2023-05-03T09:24:33.891Z,682.00
2023-05-03T09:25:34.027Z,683.00
2023-05-03T09:26:35.970Z,682.00
2023-05-03T09:27:33.857Z,681.00
2023-05-03T09:28:33.851Z,681.00
2023-05-03T09:29:33.850Z,682.00
2023-05-03T09:30:33.823Z,680.00
2023-05-03T09:31:33.992Z,682.00
2023-05-03T09:32:33.829Z,681.00
2023-05-03T09:33:33.805Z,681.00
2023-05-03T09:34:33.816Z,681.00
2023-05-03T09:35:33.765Z,681.00
2023-05-03T09:36:33.780Z,681.00
2023-05-03T09:37:33.870Z,681.00
2023-05-03T09:38:33.775Z,684.00
2023-05-03T09:39:33.732Z,683.00
2023-05-03T09:40:33.722Z,683.00
2023-05-03T09:41:33.711Z,682.00
2023-05-03T09:42:33.696Z,682.00
2023-05-03T09:43:33.815Z,680.00
2023-05-03T09:44:33.685Z,680.00
2023-05-03T09:45:33.705Z,681.00
2023-05-03T09:46:33.960Z,681.00
2023-05-03T09:47:33.723Z,681.00
2023-05-03T09:48:33.632Z,680.00
2023-05-03T09:49:33.755Z,681.00
2023-05-03T09:50:40.100Z,680.00
2023-05-03T09:51:33.600Z,680.00
2023-05-03T09:52:33.590Z,680.00
2023-05-03T09:53:33.574Z,680.00
2023-05-03T09:54:33.584Z,680.00
2023-05-03T09:55:33.613Z,678.00
2023-05-03T09:56:33.557Z,679.00
2023-05-03T09:57:33.550Z,679.00
2023-05-03T09:58:33.527Z,677.00
2023-05-03T09:59:33.515Z,674.00
2023-05-03T10:00:33.506Z,672.00
2023-05-03T10:01:33.687Z,672.00
2023-05-03T10:02:33.566Z,672.00
2023-05-03T10:03:33.477Z,673.00
2023-05-03T10:04:33.475Z,672.00
2023-05-03T10:05:33.455Z,673.00
2023-05-03T10:06:33.473Z,672.00
2023-05-03T10:07:33.578Z,671.00
2023-05-03T10:08:33.423Z,672.00
2023-05-03T10:09:33.410Z,672.00
2023-05-03T10:10:33.404Z,670.00
2023-05-03T10:11:33.389Z,671.00
2023-05-03T10:12:33.384Z,672.00
2023-05-03T10:13:33.401Z,672.00
2023-05-03T10:14:33.361Z,671.00
2023-05-03T10:15:33.376Z,668.00
2023-05-03T10:16:33.339Z,668.00
2023-05-03T10:17:47.003Z,668.00
2023-05-03T10:18:33.360Z,669.00
2023-05-03T10:19:33.469Z,669.00
2023-05-03T10:20:33.300Z,670.00
2023-05-03T10:21:33.289Z,668.00
2023-05-03T10:22:33.270Z,669.00
2023-05-03T10:23:33.377Z,667.00
2023-05-03T10:24:33.260Z,667.00
2023-05-03T10:25:33.280Z,668.00
2023-05-03T10:26:33.239Z,670.00
2023-05-03T10:27:33.216Z,669.00
2023-05-03T10:28:33.213Z,669.00
2023-05-03T10:29:33.197Z,668.00
2023-05-03T10:30:33.239Z,668.00
2023-05-03T10:31:33.375Z,667.00
2023-05-03T10:32:33.235Z,670.00
2023-05-03T10:33:33.160Z,668.00
2023-05-03T10:34:33.142Z,668.00
2023-05-03T10:35:33.130Z,668.00
2023-05-03T10:36:45.824Z,668.00
2023-05-03T10:37:33.264Z,669.00
2023-05-03T10:38:33.104Z,669.00
2023-05-03T10:39:33.088Z,668.00
2023-05-03T10:40:33.083Z,669.00
2023-05-03T10:41:33.069Z,666.00
2023-05-03T10:42:33.062Z,665.00
2023-05-03T10:43:33.199Z,665.00
2023-05-03T10:44:33.056Z,661.00
2023-05-03T10:45:33.023Z,662.00
2023-05-03T10:46:33.078Z,661.00
2023-05-03T10:47:33.036Z,663.00
2023-05-03T10:48:32.994Z,664.00
2023-05-03T10:49:33.146Z,664.00
2023-05-03T10:50:39.009Z,663.00
2023-05-03T10:51:33.186Z,663.00
2023-05-03T10:52:32.949Z,662.00
2023-05-03T10:53:32.942Z,662.00
2023-05-03T10:54:32.929Z,661.00
2023-05-03T10:55:33.073Z,662.00
2023-05-03T10:56:32.915Z,660.00
2023-05-03T10:57:32.914Z,660.00
2023-05-03T10:58:32.894Z,659.00
2023-05-03T10:59:32.875Z,660.00
2023-05-03T11:00:32.884Z,659.00
2023-05-03T11:01:33.010Z,658.00
2023-05-03T11:02:32.883Z,657.00
2023-05-03T11:03:32.924Z,657.00
2023-05-03T11:04:32.865Z,656.00
2023-05-03T11:05:32.817Z,657.00
2023-05-03T11:06:32.860Z,656.00
2023-05-03T11:07:32.945Z,657.00
2023-05-03T11:08:32.791Z,657.00
2023-05-03T11:09:32.770Z,656.00
2023-05-03T11:10:32.759Z,657.00
2023-05-03T11:11:32.742Z,656.00
2023-05-03T11:12:32.745Z,659.00
2023-05-03T11:13:32.914Z,661.00
2023-05-03T11:14:32.735Z,658.00
2023-05-03T11:15:32.712Z,661.00
2023-05-03T11:16:32.726Z,660.00
2023-05-03T11:17:32.727Z,660.00
2023-05-03T11:18:32.676Z,660.00
2023-05-03T11:19:32.832Z,662.00
2023-05-03T11:20:32.657Z,661.00
2023-05-03T11:21:32.661Z,658.00
2023-05-03T11:22:32.642Z,661.00
2023-05-03T11:23:32.622Z,660.00
2023-05-03T11:24:32.613Z,660.00
2023-05-03T11:25:32.746Z,661.00
2023-05-03T11:26:32.596Z,662.00
2023-05-03T11:27:32.582Z,661.00
2023-05-03T11:28:32.574Z,659.00
2023-05-03T11:29:32.565Z,657.00
2023-05-03T11:30:32.551Z,658.00
2023-05-03T11:31:32.618Z,655.00
2023-05-03T11:32:32.551Z,655.00
2023-05-03T11:33:32.520Z,653.00
2023-05-03T11:34:32.503Z,652.00
2023-05-03T11:35:32.503Z,653.00
2023-05-03T11:36:32.478Z,653.00
2023-05-03T11:37:32.617Z,654.00
2023-05-03T11:38:32.465Z,654.00
2023-05-03T11:39:32.454Z,654.00
2023-05-03T11:40:32.438Z,655.00
2023-05-03T11:41:32.443Z,656.00
2023-05-03T11:42:32.441Z,657.00
2023-05-03T11:43:32.588Z,657.00
2023-05-03T11:44:32.412Z,658.00
2023-05-03T11:45:32.437Z,657.00
2023-05-03T11:46:32.404Z,657.00
2023-05-03T11:47:32.403Z,659.00
2023-05-03T11:48:32.592Z,659.00
2023-05-03T11:49:32.377Z,660.00
2023-05-03T11:50:38.353Z,659.00
2023-05-03T11:51:32.335Z,659.00
2023-05-03T11:52:32.356Z,658.00
2023-05-03T11:53:32.322Z,656.00
2023-05-03T11:54:32.302Z,655.00
2023-05-03T11:55:32.443Z,656.00
2023-05-03T11:56:32.280Z,656.00
2023-05-03T11:57:32.294Z,654.00
2023-05-03T11:58:32.271Z,653.00
2023-05-03T11:59:32.259Z,651.00
2023-05-03T12:00:32.248Z,650.00
2023-05-03T12:01:32.390Z,650.00
2023-05-03T12:02:32.342Z,648.00
2023-05-03T12:03:33.328Z,648.00
2023-05-03T12:04:32.385Z,649.00
2023-05-03T12:05:32.661Z,649.00
2023-05-03T12:06:33.528Z,650.00
2023-05-03T12:07:32.416Z,647.00
2023-05-03T12:08:34.756Z,647.00
2023-05-03T12:09:32.328Z,649.00
2023-05-03T12:10:32.781Z,651.00
2023-05-03T12:11:35.252Z,653.00
2023-05-03T12:12:35.668Z,652.00
2023-05-03T12:13:34.188Z,652.00
2023-05-03T12:14:33.064Z,651.00
2023-05-03T12:15:33.786Z,653.00
2023-05-03T12:16:32.242Z,653.00
2023-05-03T12:17:32.357Z,653.00
2023-05-03T12:18:32.513Z,652.00
2023-05-03T12:19:33.997Z,652.00
2023-05-03T12:21:32.472Z,649.00
2023-05-03T12:22:32.162Z,648.00
2023-05-03T12:24:33.158Z,648.00
2023-05-03T12:25:33.882Z,648.00
2023-05-03T12:27:32.856Z,647.00
2023-05-03T12:28:32.005Z,645.00
2023-05-03T12:29:35.356Z,646.00
2023-05-03T12:30:33.698Z,645.00
2023-05-03T12:31:34.509Z,645.00
2023-05-03T12:32:32.009Z,646.00
2023-05-03T12:33:33.639Z,645.00